Killian, Louisiana
Current Conditions -  °F | °C
As of 12:55 AM on Friday 19 Dec 2014 (Local Time) from K1L0 Reporting Station
Overcast Overcast  
Wind Chill: 58°   Ceiling: 4000
Heat Index: 58°   Visibility: 10mi
Dew Point: 55°   Wind: 6mph
Humidity: 87%   Direction: 60°ENE
Pressure: 30.1"   Gusts: NA
Location:  30.3666°N, 90.584°W
Report Text: K1L0 190655Z AUTO 06005KT 10SM SCT020 BKN040 OVC048 15/13 A3010 RMK AO2 T01470125
Loading
Personal Weather Stations






























Interactive Weather Map New forecast layout! Learn more

10-Day Weather Forecast

Advertisements
Track Severe Weather on mobile